createdAt,value
2023-01-13T00:04:57.671Z,36.67
2023-01-13T00:09:59.660Z,28.60
2023-01-13T00:15:01.775Z,24.23
2023-01-13T00:20:03.968Z,25.80
2023-01-13T00:25:06.904Z,23.90
2023-01-13T00:30:09.452Z,22.70
2023-01-13T00:35:11.414Z,19.10
2023-01-13T00:40:13.701Z,20.63
2023-01-13T00:45:15.835Z,23.33
2023-01-13T00:50:17.867Z,25.00
2023-01-13T00:55:20.047Z,27.88
2023-01-13T01:00:21.907Z,19.50
2023-01-13T01:05:23.763Z,20.33
2023-01-13T01:10:26.038Z,17.85
2023-01-13T01:15:28.027Z,18.40
2023-01-13T01:20:29.940Z,20.50
2023-01-13T01:25:33.391Z,18.40
2023-01-13T01:30:35.374Z,20.95
2023-01-13T01:35:40.690Z,17.08
2023-01-13T01:40:42.801Z,16.58
2023-01-13T01:45:45.004Z,18.17
2023-01-13T01:50:47.501Z,19.60
2023-01-13T01:55:49.401Z,15.95
2023-01-13T02:00:51.754Z,17.10
2023-01-13T02:05:53.852Z,20.25
2023-01-13T02:10:55.836Z,18.80
2023-01-13T02:15:59.105Z,25.48
2023-01-13T02:21:13.773Z,26.73
2023-01-13T02:26:21.650Z,35.90
2023-01-13T02:31:42.314Z,18.77
2023-01-13T02:37:07.262Z,21.13
2023-01-13T02:47:34.492Z,20.23
2023-01-13T02:53:04.757Z,19.08
2023-01-13T02:58:09.191Z,21.40
2023-01-13T03:03:11.387Z,22.08
2023-01-13T03:08:30.825Z,20.48
2023-01-13T03:14:09.047Z,20.30
2023-01-13T03:19:26.002Z,20.98
2023-01-13T03:24:36.059Z,19.50
2023-01-13T03:29:42.637Z,19.48
2023-01-13T03:34:48.232Z,19.88
2023-01-13T03:40:01.042Z,24.35
2023-01-13T03:45:11.517Z,24.35
2023-01-13T03:50:18.012Z,21.75
2023-01-13T03:55:23.684Z,19.17
2023-01-13T04:00:32.315Z,21.95
2023-01-13T04:05:37.062Z,18.55
2023-01-13T04:10:46.043Z,22.05
2023-01-13T04:15:49.665Z,19.17
2023-01-13T04:20:53.374Z,22.73
2023-01-13T04:25:55.755Z,19.33
2023-01-13T04:30:57.913Z,19.27
2023-01-13T04:35:59.915Z,22.40
2023-01-13T04:41:01.873Z,18.13
2023-01-13T04:46:03.782Z,24.77
2023-01-13T04:51:06.067Z,20.60
2023-01-13T04:56:08.249Z,17.20
2023-01-13T05:01:10.657Z,22.70
2023-01-13T05:06:12.680Z,21.92
2023-01-13T05:11:33.632Z,20.70
2023-01-13T05:16:54.470Z,24.52
2023-01-13T05:22:14.898Z,20.33
2023-01-13T05:27:17.202Z,28.40
2023-01-13T05:32:19.660Z,21.05
2023-01-13T05:37:21.904Z,22.55
2023-01-13T05:42:42.500Z,23.77
2023-01-13T05:47:44.420Z,25.30
2023-01-13T05:52:46.357Z,27.80
2023-01-13T05:57:48.281Z,24.15
2023-01-13T06:02:50.272Z,23.95
2023-01-13T06:07:52.189Z,22.42
2023-01-13T06:12:54.325Z,21.75
2023-01-13T06:17:57.260Z,27.48
2023-01-13T06:22:59.646Z,24.65
2023-01-13T06:28:02.257Z,24.50
2023-01-13T06:33:05.345Z,28.58
2023-01-13T06:38:10.824Z,22.63
2023-01-13T06:43:16.664Z,22.25
2023-01-13T06:48:20.941Z,25.38
2023-01-13T06:53:22.961Z,23.65
2023-01-13T06:58:24.968Z,21.70
2023-01-13T07:03:26.882Z,24.15
2023-01-13T07:08:28.998Z,20.92
2023-01-13T07:13:49.809Z,20.50
2023-01-13T07:18:51.821Z,18.70
2023-01-13T07:23:53.760Z,20.33
2023-01-13T07:28:55.773Z,19.55
2023-01-13T07:33:57.635Z,22.63
2023-01-13T07:38:59.827Z,21.13
2023-01-13T07:44:05.126Z,16.23
2023-01-13T07:49:07.629Z,18.38
2023-01-13T07:54:09.551Z,20.50
2023-01-13T07:59:11.801Z,20.02
2023-01-13T08:04:13.732Z,22.27
2023-01-13T08:09:15.641Z,20.63
2023-01-13T08:14:17.663Z,19.13
2023-01-13T08:19:20.538Z,18.05
2023-01-13T08:24:22.502Z,16.08
2023-01-13T08:29:24.571Z,21.30
2023-01-13T08:34:26.673Z,21.85
2023-01-13T08:39:28.608Z,25.80
2023-01-13T08:44:31.829Z,22.00
2023-01-13T08:49:34.414Z,26.05
2023-01-13T08:54:38.989Z,43.30
2023-01-13T08:59:41.321Z,28.33
2023-01-13T09:04:43.905Z,27.60
2023-01-13T09:09:45.855Z,23.00
2023-01-13T09:14:48.244Z,29.63
2023-01-13T09:19:50.637Z,27.33
2023-01-13T09:24:53.239Z,29.17
2023-01-13T09:29:55.270Z,28.05
2023-01-13T09:35:03.964Z,28.33
2023-01-13T09:40:11.681Z,27.17
2023-01-13T09:45:13.771Z,24.00
2023-01-13T09:50:18.771Z,22.98
2023-01-13T09:55:30.353Z,24.38
2023-01-13T10:00:39.016Z,24.52
2023-01-13T10:05:44.431Z,22.63
2023-01-13T10:10:53.781Z,24.30
2023-01-13T10:16:11.183Z,23.73
2023-01-13T10:21:39.317Z,24.95
2023-01-13T10:26:47.266Z,23.45
2023-01-13T10:31:49.412Z,25.90
2023-01-13T10:37:17.017Z,26.80
2023-01-13T10:42:23.205Z,30.92
2023-01-13T10:47:30.379Z,22.13
2023-01-13T10:52:37.726Z,29.35
2023-01-13T10:57:39.606Z,25.95
2023-01-13T11:02:41.820Z,24.75
2023-01-13T11:07:52.866Z,24.63
2023-01-13T11:13:33.250Z,23.67
2023-01-13T11:18:38.262Z,21.02
2023-01-13T11:23:44.596Z,31.98
2023-01-13T11:29:06.184Z,35.15
2023-01-13T11:34:35.812Z,24.55
2023-01-13T11:40:09.965Z,24.55
2023-01-13T11:45:19.981Z,20.58
2023-01-13T11:50:42.356Z,23.25
2023-01-13T11:56:01.166Z,20.15
2023-01-13T12:01:22.297Z,23.63
2023-01-13T12:06:40.329Z,23.42
2023-01-13T12:12:11.610Z,23.33
2023-01-13T12:17:36.601Z,22.08
2023-01-13T12:22:39.508Z,24.10
2023-01-13T12:27:47.371Z,22.10
2023-01-13T12:32:49.932Z,21.55
2023-01-13T12:38:02.580Z,26.90
2023-01-13T12:43:37.602Z,24.30
2023-01-13T12:48:54.711Z,26.10
2023-01-13T12:53:56.927Z,27.13
2023-01-13T12:59:32.649Z,26.05
2023-01-13T13:04:56.229Z,40.10
2023-01-13T13:10:06.152Z,34.35
2023-01-13T13:15:24.048Z,30.02
2023-01-13T13:21:03.953Z,25.58
2023-01-13T13:26:29.426Z,23.98
2023-01-13T13:31:31.585Z,26.63
2023-01-13T13:37:55.020Z,25.58
2023-01-13T13:43:16.130Z,25.20
2023-01-13T13:48:28.100Z,27.50
2023-01-13T13:53:36.185Z,25.10
2023-01-13T13:58:38.192Z,26.67
2023-01-13T14:03:40.367Z,21.98
2023-01-13T14:08:50.231Z,26.83
2023-01-13T14:14:06.804Z,21.85
2023-01-13T14:19:28.808Z,22.20
2023-01-13T14:24:31.664Z,24.02
2023-01-13T14:29:34.011Z,22.35
2023-01-13T14:34:37.861Z,18.15
2023-01-13T14:39:42.588Z,21.67
2023-01-13T14:50:06.420Z,22.60
2023-01-13T14:55:10.160Z,21.60
2023-01-13T15:00:14.832Z,19.30
2023-01-13T15:10:28.825Z,24.67
2023-01-13T15:15:35.973Z,24.17
2023-01-13T15:20:39.398Z,25.17
2023-01-13T15:25:42.933Z,20.85
2023-01-13T15:30:45.066Z,21.92
2023-01-13T15:35:52.350Z,20.42
2023-01-13T15:40:54.405Z,19.05
2023-01-13T15:46:15.359Z,20.48
2023-01-13T15:51:17.807Z,20.67
2023-01-13T15:56:23.929Z,21.25
2023-01-13T16:01:26.142Z,17.15
2023-01-13T16:06:33.196Z,19.65
2023-01-13T16:11:35.242Z,18.63
2023-01-13T16:16:37.810Z,17.65
2023-01-13T16:21:40.551Z,18.58
2023-01-13T16:26:42.649Z,17.02
2023-01-13T16:31:44.643Z,18.65
2023-01-13T16:36:46.814Z,18.38
2023-01-13T16:41:49.289Z,17.23
2023-01-13T16:46:51.307Z,17.50
2023-01-13T16:51:53.321Z,16.98
2023-01-13T16:56:55.269Z,16.70
2023-01-13T17:01:57.426Z,15.90
2023-01-13T17:07:08.198Z,17.05
2023-01-13T17:12:10.867Z,13.82
2023-01-13T17:17:27.792Z,15.82
2023-01-13T17:22:30.939Z,14.25
2023-01-13T17:27:33.386Z,14.63
2023-01-13T17:32:35.355Z,14.57
2023-01-13T17:37:37.433Z,15.02
2023-01-13T17:42:39.491Z,17.73
2023-01-13T17:47:41.617Z,14.32
2023-01-13T17:52:43.489Z,16.40
2023-01-13T17:57:45.557Z,16.77
2023-01-13T18:02:47.552Z,18.70
2023-01-13T18:07:49.533Z,16.48
2023-01-13T18:12:51.681Z,16.15
2023-01-13T18:17:53.690Z,16.90
2023-01-13T18:23:14.160Z,16.17
2023-01-13T18:28:16.236Z,14.98
2023-01-13T18:33:18.388Z,11.52
2023-01-13T18:38:23.971Z,15.25
2023-01-13T18:43:26.160Z,19.23
2023-01-13T18:48:28.190Z,16.13
2023-01-13T18:53:30.249Z,22.83
2023-01-13T18:58:33.250Z,18.73
2023-01-13T19:03:35.192Z,17.65
2023-01-13T19:08:37.659Z,21.70
2023-01-13T19:13:39.710Z,25.00
2023-01-13T19:18:41.841Z,28.33
2023-01-13T19:23:43.898Z,24.92
2023-01-13T19:37:06.811Z,26.30
2023-01-13T19:42:29.434Z,24.88
2023-01-13T19:47:31.525Z,30.60
2023-01-13T19:52:33.568Z,31.63
2023-01-13T19:57:35.754Z,29.45
2023-01-13T20:02:38.771Z,31.60
2023-01-13T20:07:40.777Z,32.78
2023-01-13T20:12:42.798Z,26.50
2023-01-13T20:17:44.883Z,26.50
2023-01-13T20:22:49.196Z,23.83
2023-01-13T20:27:51.118Z,23.40
2023-01-13T20:32:53.080Z,21.40
2023-01-13T20:37:55.063Z,22.02
2023-01-13T20:42:57.113Z,21.80
2023-01-13T20:47:59.171Z,21.13
2023-01-13T20:53:01.218Z,19.60
2023-01-13T20:58:03.290Z,19.08
2023-01-13T21:03:05.278Z,21.88
2023-01-13T21:08:07.344Z,20.08
2023-01-13T21:13:29.856Z,20.08
2023-01-13T21:18:50.271Z,22.95
2023-01-13T21:23:53.068Z,25.55
2023-01-13T21:28:58.787Z,21.10
2023-01-13T21:34:01.000Z,20.30
2023-01-13T21:39:03.132Z,20.95
2023-01-13T21:44:23.768Z,21.73
2023-01-13T21:49:25.830Z,26.52
2023-01-13T21:54:28.108Z,26.02
2023-01-13T21:59:30.086Z,24.13
2023-01-13T22:04:32.811Z,20.40
2023-01-13T22:09:35.092Z,20.33
2023-01-13T22:14:37.081Z,22.33
2023-01-13T22:19:42.337Z,22.13
2023-01-13T22:24:47.787Z,22.50
2023-01-13T22:29:50.639Z,20.30
2023-01-13T22:34:52.651Z,25.42
2023-01-13T22:39:54.565Z,22.23
2023-01-13T22:44:56.659Z,23.65
2023-01-13T22:49:58.763Z,23.98
2023-01-13T22:55:01.077Z,21.30
2023-01-13T23:00:04.863Z,20.13
2023-01-13T23:05:07.232Z,21.83
2023-01-13T23:10:09.719Z,18.13
2023-01-13T23:15:11.823Z,16.58
2023-01-13T23:20:13.936Z,15.55
2023-01-13T23:25:16.036Z,16.70
2023-01-13T23:30:18.360Z,19.10
2023-01-13T23:35:20.360Z,18.38
2023-01-13T23:40:22.431Z,19.08
2023-01-13T23:45:24.545Z,21.00
2023-01-13T23:50:26.582Z,18.02
2023-01-13T23:55:28.617Z,18.48
